sensor_id;sensor_type;location;lat;lon;timestamp;temperature;humidity
15288;DHT22;7745;48.708;9.026;2022-12-29T00:00:07;7.70;99.90
15288;DHT22;7745;48.708;9.026;2022-12-29T00:02:34;7.70;99.90
15288;DHT22;7745;48.708;9.026;2022-12-29T00:05:04;7.70;99.90
15288;DHT22;7745;48.708;9.026;2022-12-29T00:07:33;7.80;99.90
15288;DHT22;7745;48.708;9.026;2022-12-29T00:10:00;7.80;99.90
15288;DHT22;7745;48.708;9.026;2022-12-29T00:12:27;7.80;99.90
15288;DHT22;7745;48.708;9.026;2022-12-29T00:15:15;7.90;99.90
15288;DHT22;7745;48.708;9.026;2022-12-29T00:17:59;7.90;99.90
15288;DHT22;7745;48.708;9.026;2022-12-29T00:20:26;8.00;99.90
15288;DHT22;7745;48.708;9.026;2022-12-29T00:23:12;8.00;99.90
15288;DHT22;7745;48.708;9.026;2022-12-29T00:25:56;8.40;99.90
15288;DHT22;7745;48.708;9.026;2022-12-29T00:28:40;8.30;99.90
15288;DHT22;7745;48.708;9.026;2022-12-29T00:31:24;8.10;99.90
15288;DHT22;7745;48.708;9.026;2022-12-29T00:34:20;8.30;99.90
15288;DHT22;7745;48.708;9.026;2022-12-29T00:37:05;8.10;99.90
15288;DHT22;7745;48.708;9.026;2022-12-29T00:39:33;8.10;99.90
15288;DHT22;7745;48.708;9.026;2022-12-29T00:42:18;8.20;99.90
15288;DHT22;7745;48.708;9.026;2022-12-29T00:44:58;8.20;99.90
15288;DHT22;7745;48.708;9.026;2022-12-29T00:47:25;8.30;99.90
15288;DHT22;7745;48.708;9.026;2022-12-29T00:49:52;8.30;99.90
15288;DHT22;7745;48.708;9.026;2022-12-29T00:52:24;8.30;99.90
15288;DHT22;7745;48.708;9.026;2022-12-29T00:54:54;8.40;99.90
15288;DHT22;7745;48.708;9.026;2022-12-29T00:57:21;8.40;99.90
15288;DHT22;7745;48.708;9.026;2022-12-29T00:59:51;8.30;99.90
15288;DHT22;7745;48.708;9.026;2022-12-29T01:02:18;8.60;99.90
15288;DHT22;7745;48.708;9.026;2022-12-29T01:04:45;8.60;99.90
15288;DHT22;7745;48.708;9.026;2022-12-29T01:07:14;8.60;99.90
15288;DHT22;7745;48.708;9.026;2022-12-29T01:09:43;8.60;99.90
15288;DHT22;7745;48.708;9.026;2022-12-29T01:12:29;8.80;99.90
15288;DHT22;7745;48.708;9.026;2022-12-29T01:15:11;8.70;99.90
15288;DHT22;7745;48.708;9.026;2022-12-29T01:17:41;8.90;99.90
15288;DHT22;7745;48.708;9.026;2022-12-29T01:20:14;8.60;99.90
15288;DHT22;7745;48.708;9.026;2022-12-29T01:22:41;8.60;99.90
15288;DHT22;7745;48.708;9.026;2022-12-29T01:25:12;8.70;99.90
15288;DHT22;7745;48.708;9.026;2022-12-29T01:27:40;9.00;99.90
15288;DHT22;7745;48.708;9.026;2022-12-29T01:30:08;8.60;99.90
15288;DHT22;7745;48.708;9.026;2022-12-29T01:32:35;8.70;99.90
15288;DHT22;7745;48.708;9.026;2022-12-29T01:35:08;8.70;99.90
15288;DHT22;7745;48.708;9.026;2022-12-29T01:37:38;8.80;99.90
15288;DHT22;7745;48.708;9.026;2022-12-29T01:40:08;8.70;99.90
15288;DHT22;7745;48.708;9.026;2022-12-29T01:42:37;8.80;99.90
15288;DHT22;7745;48.708;9.026;2022-12-29T01:45:11;9.00;99.90
15288;DHT22;7745;48.708;9.026;2022-12-29T01:47:41;8.90;99.90
15288;DHT22;7745;48.708;9.026;2022-12-29T01:50:13;8.90;99.90
15288;DHT22;7745;48.708;9.026;2022-12-29T01:52:45;8.90;99.90
15288;DHT22;7745;48.708;9.026;2022-12-29T01:55:15;8.90;99.90
15288;DHT22;7745;48.708;9.026;2022-12-29T01:57:48;8.80;99.90
15288;DHT22;7745;48.708;9.026;2022-12-29T02:00:17;8.80;99.90
15288;DHT22;7745;48.708;9.026;2022-12-29T02:02:47;8.70;99.90
15288;DHT22;7745;48.708;9.026;2022-12-29T02:05:25;8.70;99.90
15288;DHT22;7745;48.708;9.026;2022-12-29T02:07:55;8.90;99.90
15288;DHT22;7745;48.708;9.026;2022-12-29T02:10:24;8.70;99.90
15288;DHT22;7745;48.708;9.026;2022-12-29T02:12:57;8.70;99.90
15288;DHT22;7745;48.708;9.026;2022-12-29T02:15:35;8.80;99.90
15288;DHT22;7745;48.708;9.026;2022-12-29T02:18:18;9.00;99.90
15288;DHT22;7745;48.708;9.026;2022-12-29T02:21:19;9.10;99.90
15288;DHT22;7745;48.708;9.026;2022-12-29T02:24:11;8.80;99.90
15288;DHT22;7745;48.708;9.026;2022-12-29T02:27:09;8.90;99.90
15288;DHT22;7745;48.708;9.026;2022-12-29T02:29:53;8.90;99.90
15288;DHT22;7745;48.708;9.026;2022-12-29T02:32:38;8.90;99.90
15288;DHT22;7745;48.708;9.026;2022-12-29T02:35:13;8.80;99.90
15288;DHT22;7745;48.708;9.026;2022-12-29T02:37:49;8.80;99.90
15288;DHT22;7745;48.708;9.026;2022-12-29T02:40:24;8.80;99.90
15288;DHT22;7745;48.708;9.026;2022-12-29T02:43:01;9.20;99.90
15288;DHT22;7745;48.708;9.026;2022-12-29T02:45:35;8.90;99.90
15288;DHT22;7745;48.708;9.026;2022-12-29T02:48:10;9.00;99.90
15288;DHT22;7745;48.708;9.026;2022-12-29T02:50:42;9.00;99.90
15288;DHT22;7745;48.708;9.026;2022-12-29T02:53:12;9.40;99.90
15288;DHT22;7745;48.708;9.026;2022-12-29T02:55:47;9.10;99.90
15288;DHT22;7745;48.708;9.026;2022-12-29T02:58:17;9.20;99.90
15288;DHT22;7745;48.708;9.026;2022-12-29T03:00:55;9.30;99.90
15288;DHT22;7745;48.708;9.026;2022-12-29T03:03:39;9.50;99.90
15288;DHT22;7745;48.708;9.026;2022-12-29T03:06:20;9.40;99.90
15288;DHT22;7745;48.708;9.026;2022-12-29T03:08:57;9.40;99.90
15288;DHT22;7745;48.708;9.026;2022-12-29T03:11:30;9.70;99.90
15288;DHT22;7745;48.708;9.026;2022-12-29T03:14:26;9.50;99.90
15288;DHT22;7745;48.708;9.026;2022-12-29T03:17:19;10.00;99.90
15288;DHT22;7745;48.708;9.026;2022-12-29T03:19:55;9.80;99.90
15288;DHT22;7745;48.708;9.026;2022-12-29T03:22:29;9.60;99.90
15288;DHT22;7745;48.708;9.026;2022-12-29T03:25:01;9.70;99.90
15288;DHT22;7745;48.708;9.026;2022-12-29T03:27:31;9.80;99.90
15288;DHT22;7745;48.708;9.026;2022-12-29T03:30:03;10.10;99.90
15288;DHT22;7745;48.708;9.026;2022-12-29T03:32:34;9.80;99.90
15288;DHT22;7745;48.708;9.026;2022-12-29T03:35:05;10.20;99.90
15288;DHT22;7745;48.708;9.026;2022-12-29T03:37:37;9.90;99.90
15288;DHT22;7745;48.708;9.026;2022-12-29T03:40:07;9.90;99.90
15288;DHT22;7745;48.708;9.026;2022-12-29T03:42:36;9.80;99.90
15288;DHT22;7745;48.708;9.026;2022-12-29T03:45:08;9.80;99.90
15288;DHT22;7745;48.708;9.026;2022-12-29T03:47:35;9.80;99.90
15288;DHT22;7745;48.708;9.026;2022-12-29T03:50:06;9.80;99.90
15288;DHT22;7745;48.708;9.026;2022-12-29T03:52:38;9.60;99.90
15288;DHT22;7745;48.708;9.026;2022-12-29T03:55:08;9.70;99.90
15288;DHT22;7745;48.708;9.026;2022-12-29T03:57:35;9.60;99.90
15288;DHT22;7745;48.708;9.026;2022-12-29T04:00:08;9.60;99.90
15288;DHT22;7745;48.708;9.026;2022-12-29T04:02:36;9.60;99.90
15288;DHT22;7745;48.708;9.026;2022-12-29T04:05:07;9.60;99.90
15288;DHT22;7745;48.708;9.026;2022-12-29T04:07:36;9.60;99.90
15288;DHT22;7745;48.708;9.026;2022-12-29T04:10:06;9.60;99.90
15288;DHT22;7745;48.708;9.026;2022-12-29T04:12:36;9.50;99.90
15288;DHT22;7745;48.708;9.026;2022-12-29T04:15:09;9.60;99.90
15288;DHT22;7745;48.708;9.026;2022-12-29T04:17:39;9.60;99.90
15288;DHT22;7745;48.708;9.026;2022-12-29T04:20:09;9.60;99.90
15288;DHT22;7745;48.708;9.026;2022-12-29T04:22:58;9.50;99.90
15288;DHT22;7745;48.708;9.026;2022-12-29T04:25:28;9.50;99.90
15288;DHT22;7745;48.708;9.026;2022-12-29T04:28:00;9.40;99.90
15288;DHT22;7745;48.708;9.026;2022-12-29T04:30:29;9.50;99.90
15288;DHT22;7745;48.708;9.026;2022-12-29T04:32:56;9.60;99.90
15288;DHT22;7745;48.708;9.026;2022-12-29T04:35:27;9.70;99.90
15288;DHT22;7745;48.708;9.026;2022-12-29T04:37:59;9.70;99.90
15288;DHT22;7745;48.708;9.026;2022-12-29T04:40:32;9.60;99.90
15288;DHT22;7745;48.708;9.026;2022-12-29T04:43:02;9.50;99.90
15288;DHT22;7745;48.708;9.026;2022-12-29T04:45:32;9.60;99.90
15288;DHT22;7745;48.708;9.026;2022-12-29T04:48:02;10.00;99.90
15288;DHT22;7745;48.708;9.026;2022-12-29T04:50:31;9.70;99.90
15288;DHT22;7745;48.708;9.026;2022-12-29T04:53:03;9.70;99.90
15288;DHT22;7745;48.708;9.026;2022-12-29T04:55:33;9.70;99.90
15288;DHT22;7745;48.708;9.026;2022-12-29T04:58:03;9.80;99.90
15288;DHT22;7745;48.708;9.026;2022-12-29T05:00:33;9.80;99.90
15288;DHT22;7745;48.708;9.026;2022-12-29T05:03:00;9.80;99.90
15288;DHT22;7745;48.708;9.026;2022-12-29T05:05:34;10.10;99.90
15288;DHT22;7745;48.708;9.026;2022-12-29T05:08:02;10.10;99.90
15288;DHT22;7745;48.708;9.026;2022-12-29T05:10:31;9.80;99.90
15288;DHT22;7745;48.708;9.026;2022-12-29T05:12:58;10.30;99.90
15288;DHT22;7745;48.708;9.026;2022-12-29T05:15:25;9.80;99.90
15288;DHT22;7745;48.708;9.026;2022-12-29T05:17:57;9.80;99.90
15288;DHT22;7745;48.708;9.026;2022-12-29T05:20:27;9.80;99.90
15288;DHT22;7745;48.708;9.026;2022-12-29T05:22:57;9.90;99.90
15288;DHT22;7745;48.708;9.026;2022-12-29T05:25:27;9.90;99.90
15288;DHT22;7745;48.708;9.026;2022-12-29T05:27:57;9.80;99.90
15288;DHT22;7745;48.708;9.026;2022-12-29T05:30:31;9.70;99.90
15288;DHT22;7745;48.708;9.026;2022-12-29T05:33:02;9.70;99.90
15288;DHT22;7745;48.708;9.026;2022-12-29T05:35:32;9.70;99.90
15288;DHT22;7745;48.708;9.026;2022-12-29T05:38:08;9.70;99.90
15288;DHT22;7745;48.708;9.026;2022-12-29T05:40:44;9.80;99.90
15288;DHT22;7745;48.708;9.026;2022-12-29T05:43:19;10.10;99.90
15288;DHT22;7745;48.708;9.026;2022-12-29T05:45:48;9.90;99.90
15288;DHT22;7745;48.708;9.026;2022-12-29T05:48:15;9.90;99.90
15288;DHT22;7745;48.708;9.026;2022-12-29T05:50:46;9.80;99.90
15288;DHT22;7745;48.708;9.026;2022-12-29T05:53:17;10.10;99.90
15288;DHT22;7745;48.708;9.026;2022-12-29T05:55:48;9.80;99.90
15288;DHT22;7745;48.708;9.026;2022-12-29T05:58:15;10.50;99.90
15288;DHT22;7745;48.708;9.026;2022-12-29T06:00:42;10.30;99.90
15288;DHT22;7745;48.708;9.026;2022-12-29T06:03:15;10.40;99.90
15288;DHT22;7745;48.708;9.026;2022-12-29T06:05:50;10.30;99.90
15288;DHT22;7745;48.708;9.026;2022-12-29T06:08:19;10.20;99.90
15288;DHT22;7745;48.708;9.026;2022-12-29T06:10:49;10.20;99.90
15288;DHT22;7745;48.708;9.026;2022-12-29T06:13:19;10.30;99.90
15288;DHT22;7745;48.708;9.026;2022-12-29T06:15:51;10.40;99.90
15288;DHT22;7745;48.708;9.026;2022-12-29T06:18:21;10.30;99.90
15288;DHT22;7745;48.708;9.026;2022-12-29T06:21:11;10.40;99.90
15288;DHT22;7745;48.708;9.026;2022-12-29T06:23:42;10.50;99.90
15288;DHT22;7745;48.708;9.026;2022-12-29T06:26:14;10.50;99.90
15288;DHT22;7745;48.708;9.026;2022-12-29T06:28:51;10.30;99.90
15288;DHT22;7745;48.708;9.026;2022-12-29T06:31:22;10.30;99.90
15288;DHT22;7745;48.708;9.026;2022-12-29T06:33:51;10.40;99.90
15288;DHT22;7745;48.708;9.026;2022-12-29T06:36:20;10.30;99.90
15288;DHT22;7745;48.708;9.026;2022-12-29T06:38:51;10.50;99.90
15288;DHT22;7745;48.708;9.026;2022-12-29T06:41:20;10.20;99.90
15288;DHT22;7745;48.708;9.026;2022-12-29T06:43:49;10.20;99.90
15288;DHT22;7745;48.708;9.026;2022-12-29T06:46:22;10.30;99.90
15288;DHT22;7745;48.708;9.026;2022-12-29T06:48:49;10.10;99.90
15288;DHT22;7745;48.708;9.026;2022-12-29T06:51:19;10.10;99.90
15288;DHT22;7745;48.708;9.026;2022-12-29T06:53:46;10.00;99.90
15288;DHT22;7745;48.708;9.026;2022-12-29T06:56:14;10.00;99.90
15288;DHT22;7745;48.708;9.026;2022-12-29T06:59:03;9.70;99.90
15288;DHT22;7745;48.708;9.026;2022-12-29T07:01:44;9.70;99.90
15288;DHT22;7745;48.708;9.026;2022-12-29T07:04:14;9.60;99.90
15288;DHT22;7745;48.708;9.026;2022-12-29T07:06:55;9.60;99.90
15288;DHT22;7745;48.708;9.026;2022-12-29T07:09:22;9.70;99.90
15288;DHT22;7745;48.708;9.026;2022-12-29T07:11:52;9.60;99.90
15288;DHT22;7745;48.708;9.026;2022-12-29T07:14:19;9.60;99.90
15288;DHT22;7745;48.708;9.026;2022-12-29T07:16:46;9.40;99.90
15288;DHT22;7745;48.708;9.026;2022-12-29T07:19:13;9.40;99.90
15288;DHT22;7745;48.708;9.026;2022-12-29T07:21:40;9.40;99.90
15288;DHT22;7745;48.708;9.026;2022-12-29T07:24:07;9.50;99.90
15288;DHT22;7745;48.708;9.026;2022-12-29T07:26:44;9.30;99.90
15288;DHT22;7745;48.708;9.026;2022-12-29T07:29:13;9.30;99.90
15288;DHT22;7745;48.708;9.026;2022-12-29T07:31:40;9.40;99.90
15288;DHT22;7745;48.708;9.026;2022-12-29T07:34:08;9.30;99.90
15288;DHT22;7745;48.708;9.026;2022-12-29T07:36:35;9.40;99.90
15288;DHT22;7745;48.708;9.026;2022-12-29T07:39:02;9.30;99.90
15288;DHT22;7745;48.708;9.026;2022-12-29T07:41:29;9.40;99.90
15288;DHT22;7745;48.708;9.026;2022-12-29T07:44:00;9.60;99.90
15288;DHT22;7745;48.708;9.026;2022-12-29T07:46:28;9.40;99.90
15288;DHT22;7745;48.708;9.026;2022-12-29T07:48:55;9.40;99.90
15288;DHT22;7745;48.708;9.026;2022-12-29T07:51:25;9.40;99.90
15288;DHT22;7745;48.708;9.026;2022-12-29T07:53:52;9.50;99.90
15288;DHT22;7745;48.708;9.026;2022-12-29T07:56:19;9.70;99.90
15288;DHT22;7745;48.708;9.026;2022-12-29T07:58:46;9.80;99.90
15288;DHT22;7745;48.708;9.026;2022-12-29T08:01:15;9.60;99.90
15288;DHT22;7745;48.708;9.026;2022-12-29T08:03:46;9.70;99.90
15288;DHT22;7745;48.708;9.026;2022-12-29T08:06:17;9.80;99.90
15288;DHT22;7745;48.708;9.026;2022-12-29T08:08:49;9.60;99.90
15288;DHT22;7745;48.708;9.026;2022-12-29T08:11:18;9.60;99.90
15288;DHT22;7745;48.708;9.026;2022-12-29T08:13:59;9.40;99.90
15288;DHT22;7745;48.708;9.026;2022-12-29T08:16:26;9.50;99.90
15288;DHT22;7745;48.708;9.026;2022-12-29T08:18:59;9.60;99.90
15288;DHT22;7745;48.708;9.026;2022-12-29T08:21:58;10.00;99.90
15288;DHT22;7745;48.708;9.026;2022-12-29T08:24:52;9.70;99.90
15288;DHT22;7745;48.708;9.026;2022-12-29T08:27:33;9.70;99.90
15288;DHT22;7745;48.708;9.026;2022-12-29T08:30:15;9.80;99.90
15288;DHT22;7745;48.708;9.026;2022-12-29T08:32:48;9.80;99.90
15288;DHT22;7745;48.708;9.026;2022-12-29T08:35:33;9.90;99.90
15288;DHT22;7745;48.708;9.026;2022-12-29T08:38:17;10.20;99.90
15288;DHT22;7745;48.708;9.026;2022-12-29T08:40:57;10.00;99.90
15288;DHT22;7745;48.708;9.026;2022-12-29T08:43:31;9.80;99.90
15288;DHT22;7745;48.708;9.026;2022-12-29T08:46:03;9.70;99.90
15288;DHT22;7745;48.708;9.026;2022-12-29T08:48:39;9.80;99.90
15288;DHT22;7745;48.708;9.026;2022-12-29T08:51:12;9.70;99.90
15288;DHT22;7745;48.708;9.026;2022-12-29T08:53:53;9.70;99.90
15288;DHT22;7745;48.708;9.026;2022-12-29T08:56:20;9.80;99.90
15288;DHT22;7745;48.708;9.026;2022-12-29T08:58:49;10.00;99.90
15288;DHT22;7745;48.708;9.026;2022-12-29T09:01:16;10.00;99.90
15288;DHT22;7745;48.708;9.026;2022-12-29T09:03:43;10.20;99.90
15288;DHT22;7745;48.708;9.026;2022-12-29T09:06:20;10.10;99.90
15288;DHT22;7745;48.708;9.026;2022-12-29T09:08:49;10.20;99.90
15288;DHT22;7745;48.708;9.026;2022-12-29T09:11:19;10.30;99.90
15288;DHT22;7745;48.708;9.026;2022-12-29T09:13:46;10.40;99.90
15288;DHT22;7745;48.708;9.026;2022-12-29T09:16:14;10.50;99.90
15288;DHT22;7745;48.708;9.026;2022-12-29T09:18:41;10.60;99.90
15288;DHT22;7745;48.708;9.026;2022-12-29T09:21:11;10.70;99.90
15288;DHT22;7745;48.708;9.026;2022-12-29T09:23:38;10.70;99.90
15288;DHT22;7745;48.708;9.026;2022-12-29T09:26:06;10.90;99.90
15288;DHT22;7745;48.708;9.026;2022-12-29T09:28:33;11.00;99.90
15288;DHT22;7745;48.708;9.026;2022-12-29T09:31:00;11.10;99.90
15288;DHT22;7745;48.708;9.026;2022-12-29T09:33:27;11.30;99.90
15288;DHT22;7745;48.708;9.026;2022-12-29T09:35:56;11.40;99.90
15288;DHT22;7745;48.708;9.026;2022-12-29T09:38:25;11.60;99.90
15288;DHT22;7745;48.708;9.026;2022-12-29T09:40:55;11.70;99.90
15288;DHT22;7745;48.708;9.026;2022-12-29T09:43:33;11.70;99.90
15288;DHT22;7745;48.708;9.026;2022-12-29T09:46:09;11.80;99.90
15288;DHT22;7745;48.708;9.026;2022-12-29T09:48:41;11.80;99.90
15288;DHT22;7745;48.708;9.026;2022-12-29T09:51:13;11.90;99.90
15288;DHT22;7745;48.708;9.026;2022-12-29T09:53:43;12.00;99.90
15288;DHT22;7745;48.708;9.026;2022-12-29T09:56:15;12.00;99.90
15288;DHT22;7745;48.708;9.026;2022-12-29T09:58:47;12.00;99.90
15288;DHT22;7745;48.708;9.026;2022-12-29T10:01:23;12.00;99.90
15288;DHT22;7745;48.708;9.026;2022-12-29T10:04:00;12.00;99.90
15288;DHT22;7745;48.708;9.026;2022-12-29T10:06:36;12.00;99.90
15288;DHT22;7745;48.708;9.026;2022-12-29T10:09:12;12.00;99.90
15288;DHT22;7745;48.708;9.026;2022-12-29T10:11:54;12.00;99.90
15288;DHT22;7745;48.708;9.026;2022-12-29T10:14:36;12.00;99.90
15288;DHT22;7745;48.708;9.026;2022-12-29T10:17:12;12.00;99.90
15288;DHT22;7745;48.708;9.026;2022-12-29T10:22:46;12.00;99.90
15288;DHT22;7745;48.708;9.026;2022-12-29T10:25:19;12.10;99.90
15288;DHT22;7745;48.708;9.026;2022-12-29T10:27:48;12.10;99.90
15288;DHT22;7745;48.708;9.026;2022-12-29T10:30:16;12.20;99.90
15288;DHT22;7745;48.708;9.026;2022-12-29T10:32:47;12.30;99.90
15288;DHT22;7745;48.708;9.026;2022-12-29T10:35:18;12.30;99.90
15288;DHT22;7745;48.708;9.026;2022-12-29T10:37:49;12.40;99.90
15288;DHT22;7745;48.708;9.026;2022-12-29T10:40:24;12.40;99.90
15288;DHT22;7745;48.708;9.026;2022-12-29T10:42:53;12.50;99.90
15288;DHT22;7745;48.708;9.026;2022-12-29T10:45:23;12.60;99.90
15288;DHT22;7745;48.708;9.026;2022-12-29T10:47:54;12.70;99.90
15288;DHT22;7745;48.708;9.026;2022-12-29T10:50:23;12.80;99.90
15288;DHT22;7745;48.708;9.026;2022-12-29T10:52:51;12.90;99.90
15288;DHT22;7745;48.708;9.026;2022-12-29T10:55:23;12.90;99.90
15288;DHT22;7745;48.708;9.026;2022-12-29T10:57:53;12.90;99.90
15288;DHT22;7745;48.708;9.026;2022-12-29T11:00:23;12.90;99.90
15288;DHT22;7745;48.708;9.026;2022-12-29T11:03:36;12.80;99.90
15288;DHT22;7745;48.708;9.026;2022-12-29T11:06:09;12.70;99.90
15288;DHT22;7745;48.708;9.026;2022-12-29T11:08:45;12.50;99.90
15288;DHT22;7745;48.708;9.026;2022-12-29T11:11:23;12.50;99.90
15288;DHT22;7745;48.708;9.026;2022-12-29T11:13:57;12.50;99.90
15288;DHT22;7745;48.708;9.026;2022-12-29T11:16:28;12.40;99.90
15288;DHT22;7745;48.708;9.026;2022-12-29T11:18:56;12.40;99.90
15288;DHT22;7745;48.708;9.026;2022-12-29T11:21:27;12.30;99.90
15288;DHT22;7745;48.708;9.026;2022-12-29T11:24:01;12.10;99.90
15288;DHT22;7745;48.708;9.026;2022-12-29T11:26:52;12.10;99.90
15288;DHT22;7745;48.708;9.026;2022-12-29T11:29:40;11.90;99.90
15288;DHT22;7745;48.708;9.026;2022-12-29T11:33:14;11.90;99.90
15288;DHT22;7745;48.708;9.026;2022-12-29T11:36:10;11.90;99.90
15288;DHT22;7745;48.708;9.026;2022-12-29T11:38:54;11.60;99.90
15288;DHT22;7745;48.708;9.026;2022-12-29T11:41:55;11.90;99.90
15288;DHT22;7745;48.708;9.026;2022-12-29T11:45:39;11.70;99.90
15288;DHT22;7745;48.708;9.026;2022-12-29T11:47:43;11.70;99.90
15288;DHT22;7745;48.708;9.026;2022-12-29T11:50:26;11.90;99.90
15288;DHT22;7745;48.708;9.026;2022-12-29T11:53:36;11.70;99.90
15288;DHT22;7745;48.708;9.026;2022-12-29T11:59:53;11.60;99.90
15288;DHT22;7745;48.708;9.026;2022-12-29T12:02:44;11.50;99.90
15288;DHT22;7745;48.708;9.026;2022-12-29T12:09:19;11.50;99.90
15288;DHT22;7745;48.708;9.026;2022-12-29T12:12:04;11.30;99.90
15288;DHT22;7745;48.708;9.026;2022-12-29T12:18:24;11.30;99.90
15288;DHT22;7745;48.708;9.026;2022-12-29T12:21:36;11.30;99.90
15288;DHT22;7745;48.708;9.026;2022-12-29T12:26:14;11.40;99.90
15288;DHT22;7745;48.708;9.026;2022-12-29T12:28:10;11.30;99.90
15288;DHT22;7745;48.708;9.026;2022-12-29T12:30:44;11.50;99.90
15288;DHT22;7745;48.708;9.026;2022-12-29T12:41:46;11.30;99.90
15288;DHT22;7745;48.708;9.026;2022-12-29T12:47:39;11.10;99.90
15288;DHT22;7745;48.708;9.026;2022-12-29T12:50:40;11.40;99.90
15288;DHT22;7745;48.708;9.026;2022-12-29T12:53:26;11.20;99.90
15288;DHT22;7745;48.708;9.026;2022-12-29T12:56:50;11.20;99.90
15288;DHT22;7745;48.708;9.026;2022-12-29T12:59:37;11.30;99.90
15288;DHT22;7745;48.708;9.026;2022-12-29T13:05:42;11.40;99.90
15288;DHT22;7745;48.708;9.026;2022-12-29T13:08:47;11.60;99.90
15288;DHT22;7745;48.708;9.026;2022-12-29T13:11:24;11.50;99.90
15288;DHT22;7745;48.708;9.026;2022-12-29T13:14:07;11.50;99.90
15288;DHT22;7745;48.708;9.026;2022-12-29T13:16:44;11.40;99.90
15288;DHT22;7745;48.708;9.026;2022-12-29T13:19:17;11.60;99.90
15288;DHT22;7745;48.708;9.026;2022-12-29T13:21:58;11.60;99.90
15288;DHT22;7745;48.708;9.026;2022-12-29T13:24:34;11.70;99.90
15288;DHT22;7745;48.708;9.026;2022-12-29T13:27:13;11.50;99.90
15288;DHT22;7745;48.708;9.026;2022-12-29T13:29:47;11.70;99.90
15288;DHT22;7745;48.708;9.026;2022-12-29T13:32:24;11.40;99.90
15288;DHT22;7745;48.708;9.026;2022-12-29T13:35:08;11.40;99.90
15288;DHT22;7745;48.708;9.026;2022-12-29T13:37:48;11.50;99.90
15288;DHT22;7745;48.708;9.026;2022-12-29T13:40:23;11.30;99.90
15288;DHT22;7745;48.708;9.026;2022-12-29T13:42:55;11.30;99.90
15288;DHT22;7745;48.708;9.026;2022-12-29T13:45:26;11.30;99.90
15288;DHT22;7745;48.708;9.026;2022-12-29T13:47:59;11.30;99.90
15288;DHT22;7745;48.708;9.026;2022-12-29T13:50:38;11.20;99.90
15288;DHT22;7745;48.708;9.026;2022-12-29T13:53:33;11.30;99.90
15288;DHT22;7745;48.708;9.026;2022-12-29T13:56:21;11.80;99.90
15288;DHT22;7745;48.708;9.026;2022-12-29T13:58:54;11.20;99.90
15288;DHT22;7745;48.708;9.026;2022-12-29T14:01:27;11.30;99.90
15288;DHT22;7745;48.708;9.026;2022-12-29T14:03:58;11.40;99.90
15288;DHT22;7745;48.708;9.026;2022-12-29T14:06:27;11.40;99.90
15288;DHT22;7745;48.708;9.026;2022-12-29T14:08:58;11.50;99.90
15288;DHT22;7745;48.708;9.026;2022-12-29T14:11:30;11.70;99.90
15288;DHT22;7745;48.708;9.026;2022-12-29T14:13:57;11.70;99.90
15288;DHT22;7745;48.708;9.026;2022-12-29T14:16:30;11.50;99.90
15288;DHT22;7745;48.708;9.026;2022-12-29T14:19:05;11.30;99.90
15288;DHT22;7745;48.708;9.026;2022-12-29T14:21:32;11.30;99.90
15288;DHT22;7745;48.708;9.026;2022-12-29T14:24:39;11.20;99.90
15288;DHT22;7745;48.708;9.026;2022-12-29T14:30:48;11.20;99.90
15288;DHT22;7745;48.708;9.026;2022-12-29T14:33:16;11.20;99.90
15288;DHT22;7745;48.708;9.026;2022-12-29T14:35:44;11.20;99.90
15288;DHT22;7745;48.708;9.026;2022-12-29T14:38:26;11.10;99.90
15288;DHT22;7745;48.708;9.026;2022-12-29T14:44:19;11.00;99.90
15288;DHT22;7745;48.708;9.026;2022-12-29T14:46:54;11.20;99.90
15288;DHT22;7745;48.708;9.026;2022-12-29T14:49:24;10.90;99.90
15288;DHT22;7745;48.708;9.026;2022-12-29T14:51:53;10.90;99.90
15288;DHT22;7745;48.708;9.026;2022-12-29T14:54:59;10.90;99.90
15288;DHT22;7745;48.708;9.026;2022-12-29T14:57:49;10.80;99.90
15288;DHT22;7745;48.708;9.026;2022-12-29T15:01:35;10.90;99.90
15288;DHT22;7745;48.708;9.026;2022-12-29T15:04:17;10.70;99.90
15288;DHT22;7745;48.708;9.026;2022-12-29T15:06:47;10.70;99.90
15288;DHT22;7745;48.708;9.026;2022-12-29T15:09:28;10.90;99.90
15288;DHT22;7745;48.708;9.026;2022-12-29T15:12:06;10.60;99.90
15288;DHT22;7745;48.708;9.026;2022-12-29T15:14:49;10.70;99.90
15288;DHT22;7745;48.708;9.026;2022-12-29T15:17:25;10.90;99.90
15288;DHT22;7745;48.708;9.026;2022-12-29T15:19:59;11.00;99.90
15288;DHT22;7745;48.708;9.026;2022-12-29T15:22:30;10.60;99.90
15288;DHT22;7745;48.708;9.026;2022-12-29T15:25:15;11.00;99.90
15288;DHT22;7745;48.708;9.026;2022-12-29T15:27:51;10.90;99.90
15288;DHT22;7745;48.708;9.026;2022-12-29T15:30:19;11.10;99.90
15288;DHT22;7745;48.708;9.026;2022-12-29T15:32:54;10.50;99.90
15288;DHT22;7745;48.708;9.026;2022-12-29T15:35:26;10.70;99.90
15288;DHT22;7745;48.708;9.026;2022-12-29T15:37:56;10.70;99.90
15288;DHT22;7745;48.708;9.026;2022-12-29T15:40:25;11.00;99.90
15288;DHT22;7745;48.708;9.026;2022-12-29T15:43:12;11.50;99.90
15288;DHT22;7745;48.708;9.026;2022-12-29T15:45:41;10.70;99.90
15288;DHT22;7745;48.708;9.026;2022-12-29T15:48:16;10.70;99.90
15288;DHT22;7745;48.708;9.026;2022-12-29T15:50:45;10.70;99.90
15288;DHT22;7745;48.708;9.026;2022-12-29T15:53:19;10.40;99.90
15288;DHT22;7745;48.708;9.026;2022-12-29T15:55:50;10.60;99.90
15288;DHT22;7745;48.708;9.026;2022-12-29T15:58:21;10.60;99.90
15288;DHT22;7745;48.708;9.026;2022-12-29T16:00:51;10.70;99.90
15288;DHT22;7745;48.708;9.026;2022-12-29T16:03:21;10.80;99.90
15288;DHT22;7745;48.708;9.026;2022-12-29T16:05:55;10.60;99.90
15288;DHT22;7745;48.708;9.026;2022-12-29T16:08:32;10.50;99.90
15288;DHT22;7745;48.708;9.026;2022-12-29T16:11:00;10.20;99.90
15288;DHT22;7745;48.708;9.026;2022-12-29T16:13:30;10.20;99.90
15288;DHT22;7745;48.708;9.026;2022-12-29T16:16:01;9.80;99.90
15288;DHT22;7745;48.708;9.026;2022-12-29T16:18:34;9.60;99.90
15288;DHT22;7745;48.708;9.026;2022-12-29T16:21:03;9.60;99.90
15288;DHT22;7745;48.708;9.026;2022-12-29T16:23:31;9.40;99.90
15288;DHT22;7745;48.708;9.026;2022-12-29T16:28:48;9.20;99.90
15288;DHT22;7745;48.708;9.026;2022-12-29T16:31:19;9.10;99.90
15288;DHT22;7745;48.708;9.026;2022-12-29T16:33:49;9.30;99.90
15288;DHT22;7745;48.708;9.026;2022-12-29T16:36:29;9.10;99.90
15288;DHT22;7745;48.708;9.026;2022-12-29T16:39:19;9.10;99.90
15288;DHT22;7745;48.708;9.026;2022-12-29T16:41:48;9.10;99.90
15288;DHT22;7745;48.708;9.026;2022-12-29T16:44:19;9.10;99.90
15288;DHT22;7745;48.708;9.026;2022-12-29T16:47:04;9.00;99.90
15288;DHT22;7745;48.708;9.026;2022-12-29T16:49:42;9.00;99.90
15288;DHT22;7745;48.708;9.026;2022-12-29T16:52:12;9.00;99.90
15288;DHT22;7745;48.708;9.026;2022-12-29T16:58:27;9.00;99.90
15288;DHT22;7745;48.708;9.026;2022-12-29T17:01:44;9.00;99.90
15288;DHT22;7745;48.708;9.026;2022-12-29T17:04:32;8.90;99.90
15288;DHT22;7745;48.708;9.026;2022-12-29T17:07:37;9.00;99.90
15288;DHT22;7745;48.708;9.026;2022-12-29T17:10:14;8.90;99.90
15288;DHT22;7745;48.708;9.026;2022-12-29T17:12:43;8.90;99.90
15288;DHT22;7745;48.708;9.026;2022-12-29T17:15:20;8.90;99.90
15288;DHT22;7745;48.708;9.026;2022-12-29T17:17:49;8.90;99.90
15288;DHT22;7745;48.708;9.026;2022-12-29T17:20:25;8.80;99.90
15288;DHT22;7745;48.708;9.026;2022-12-29T17:22:59;8.80;99.90
15288;DHT22;7745;48.708;9.026;2022-12-29T17:25:32;8.80;99.90
15288;DHT22;7745;48.708;9.026;2022-12-29T17:28:03;8.80;99.90